createdAt,value
2023-01-26T00:01:23.339Z,25.13
2023-01-26T00:03:50.900Z,24.30
2023-01-26T00:06:20.240Z,25.08
2023-01-26T00:08:50.827Z,27.08
2023-01-26T00:11:30.345Z,29.58
2023-01-26T00:14:00.285Z,26.73
2023-01-26T00:16:27.966Z,29.17
2023-01-26T00:18:54.926Z,28.33
2023-01-26T00:21:23.584Z,26.95
2023-01-26T00:23:51.791Z,26.60
2023-01-26T00:26:22.480Z,28.73
2023-01-26T00:28:49.789Z,27.27
2023-01-26T00:31:20.332Z,26.15
2023-01-26T00:33:47.213Z,26.05
2023-01-26T00:36:14.333Z,26.23
2023-01-26T00:38:42.207Z,26.27
2023-01-26T00:41:09.319Z,30.85
2023-01-26T00:43:36.198Z,27.90
2023-01-26T00:46:03.463Z,30.55
2023-01-26T00:48:30.262Z,29.38
2023-01-26T00:50:57.069Z,29.35
2023-01-26T00:53:23.902Z,30.77
2023-01-26T00:55:50.757Z,27.42
2023-01-26T00:58:17.513Z,28.60
2023-01-26T01:00:44.386Z,26.67
2023-01-26T01:03:11.204Z,25.58
2023-01-26T01:05:37.986Z,28.20
2023-01-26T01:08:05.043Z,25.08
2023-01-26T01:10:31.779Z,25.65
2023-01-26T01:12:58.534Z,27.85
2023-01-26T01:15:25.460Z,28.42
2023-01-26T01:17:52.734Z,30.40
2023-01-26T01:20:19.875Z,28.27
2023-01-26T01:22:47.085Z,29.25
2023-01-26T01:25:14.388Z,27.33
2023-01-26T01:27:41.330Z,26.63
2023-01-26T01:30:10.044Z,29.80
2023-01-26T01:32:39.528Z,30.25
2023-01-26T01:35:07.256Z,30.88
2023-01-26T01:37:34.521Z,28.17
2023-01-26T01:40:01.268Z,26.88
2023-01-26T01:42:28.120Z,24.17
2023-01-26T01:45:25.784Z,24.80
2023-01-26T01:47:59.576Z,24.17
2023-01-26T01:50:27.276Z,24.10
2023-01-26T01:52:56.365Z,26.42
2023-01-26T01:55:25.443Z,27.42
2023-01-26T01:57:58.845Z,26.13
2023-01-26T02:00:26.504Z,26.13
2023-01-26T02:03:19.396Z,27.83
2023-01-26T02:06:13.962Z,26.63
2023-01-26T02:08:46.429Z,26.55
2023-01-26T02:11:39.564Z,26.10
2023-01-26T02:14:09.819Z,28.23
2023-01-26T02:16:39.747Z,26.77
2023-01-26T02:19:20.122Z,30.35
2023-01-26T02:21:49.883Z,24.00
2023-01-26T02:24:26.935Z,23.27
2023-01-26T02:26:54.748Z,28.17
2023-01-26T02:29:22.446Z,25.85
2023-01-26T02:31:49.802Z,24.90
2023-01-26T02:34:16.710Z,25.58
2023-01-26T02:36:43.497Z,21.63
2023-01-26T02:39:20.595Z,23.75
2023-01-26T02:42:07.625Z,23.60
2023-01-26T02:44:34.439Z,22.73
2023-01-26T02:47:01.193Z,22.60
2023-01-26T02:49:46.381Z,24.05
2023-01-26T02:52:15.202Z,21.20
2023-01-26T02:55:00.315Z,20.88
2023-01-26T02:57:27.219Z,22.33
2023-01-26T02:59:54.024Z,21.45
2023-01-26T03:02:21.140Z,23.58
2023-01-26T03:04:47.920Z,24.15
2023-01-26T03:07:15.505Z,22.17
2023-01-26T03:09:42.533Z,21.77
2023-01-26T03:12:09.404Z,26.50
2023-01-26T03:14:36.183Z,18.88
2023-01-26T03:17:03.031Z,24.35
2023-01-26T03:19:48.180Z,24.27
2023-01-26T03:22:33.773Z,22.77
2023-01-26T03:25:18.927Z,22.02
2023-01-26T03:27:49.944Z,19.83
2023-01-26T03:30:19.182Z,26.00
2023-01-26T03:32:46.052Z,22.40
2023-01-26T03:35:15.920Z,24.00
2023-01-26T03:37:43.901Z,24.75
2023-01-26T03:40:31.994Z,20.67
2023-01-26T03:43:17.393Z,21.65
2023-01-26T03:46:02.596Z,26.10
2023-01-26T03:48:47.735Z,21.60
2023-01-26T03:51:32.771Z,26.58
2023-01-26T03:54:18.257Z,28.02
2023-01-26T03:56:45.009Z,25.67
2023-01-26T03:59:15.106Z,24.95
2023-01-26T04:02:05.575Z,25.98
2023-01-26T04:04:50.740Z,25.33
2023-01-26T04:07:36.544Z,24.95
2023-01-26T04:10:03.376Z,26.13
2023-01-26T04:12:30.151Z,27.55
2023-01-26T04:15:15.549Z,26.75
2023-01-26T04:18:00.721Z,25.38
2023-01-26T04:20:45.961Z,27.33
2023-01-26T04:23:20.185Z,24.77
2023-01-26T04:25:48.566Z,26.30
2023-01-26T04:28:15.662Z,26.08
2023-01-26T04:30:42.501Z,24.90
2023-01-26T04:33:10.506Z,26.25
2023-01-26T04:35:37.335Z,29.58
2023-01-26T04:38:04.073Z,24.65
2023-01-26T04:40:30.867Z,30.73
2023-01-26T04:42:57.686Z,25.38
2023-01-26T04:45:24.459Z,23.35
2023-01-26T04:47:51.274Z,22.35
2023-01-26T04:50:18.200Z,24.20
2023-01-26T04:52:45.018Z,23.75
2023-01-26T04:55:11.789Z,24.73
2023-01-26T04:57:38.767Z,24.30
2023-01-26T05:00:07.350Z,22.95
2023-01-26T05:02:34.207Z,23.65
2023-01-26T05:05:01.004Z,22.60
2023-01-26T05:07:27.758Z,30.27
2023-01-26T05:09:55.648Z,26.05
2023-01-26T05:12:34.357Z,23.13
2023-01-26T05:15:01.340Z,24.05
2023-01-26T05:17:28.193Z,24.88
2023-01-26T05:19:54.946Z,25.95
2023-01-26T05:22:22.381Z,24.88
2023-01-26T05:24:49.137Z,27.38
2023-01-26T05:27:21.661Z,26.95
2023-01-26T05:29:50.341Z,26.65
2023-01-26T05:32:18.088Z,26.95
2023-01-26T05:34:45.507Z,23.67
2023-01-26T05:37:14.650Z,27.63
2023-01-26T05:39:42.056Z,24.40
2023-01-26T05:42:08.968Z,26.77
2023-01-26T05:44:35.764Z,29.17
2023-01-26T05:47:02.591Z,29.52
2023-01-26T05:49:29.372Z,26.95
2023-01-26T05:51:56.347Z,30.33
2023-01-26T05:54:23.263Z,29.25
2023-01-26T05:56:50.334Z,32.60
2023-01-26T05:59:17.134Z,29.80
2023-01-26T06:01:43.906Z,33.10
2023-01-26T06:04:11.570Z,31.80
2023-01-26T06:06:38.411Z,25.35
2023-01-26T06:09:05.180Z,29.15
2023-01-26T06:11:33.043Z,33.22
2023-01-26T06:14:00.225Z,33.22
2023-01-26T06:16:27.312Z,30.85
2023-01-26T06:18:54.209Z,32.50
2023-01-26T06:21:21.125Z,29.23
2023-01-26T06:23:48.006Z,32.28
2023-01-26T06:26:15.222Z,30.45
2023-01-26T06:28:42.011Z,29.80
2023-01-26T06:31:10.750Z,39.67
2023-01-26T06:33:38.231Z,42.17
2023-01-26T06:36:11.362Z,50.03
2023-01-26T06:38:39.174Z,38.13
2023-01-26T06:41:09.158Z,31.27
2023-01-26T06:43:36.627Z,33.30
2023-01-26T06:46:05.579Z,38.60
2023-01-26T06:48:36.879Z,37.20
2023-01-26T06:51:15.949Z,38.10
2023-01-26T06:53:58.710Z,31.80
2023-01-26T06:56:27.891Z,28.27
2023-01-26T06:58:54.695Z,30.35
2023-01-26T07:01:26.541Z,36.58
2023-01-26T07:03:54.833Z,28.47
2023-01-26T07:06:22.041Z,31.30
2023-01-26T07:08:48.834Z,31.77
2023-01-26T07:11:16.771Z,32.13
2023-01-26T07:13:43.834Z,36.08
2023-01-26T07:16:13.969Z,91.93
2023-01-26T07:18:41.019Z,48.15
2023-01-26T07:21:12.490Z,35.40
2023-01-26T07:23:39.505Z,32.47
2023-01-26T07:26:06.661Z,31.23
2023-01-26T07:28:39.238Z,33.78
2023-01-26T07:31:08.468Z,33.60
2023-01-26T07:33:36.786Z,28.75
2023-01-26T07:36:04.456Z,33.92
2023-01-26T07:38:35.411Z,33.38
2023-01-26T07:41:08.550Z,32.53
2023-01-26T07:43:38.316Z,33.95
2023-01-26T07:46:06.430Z,31.65
2023-01-26T07:48:34.508Z,27.92
2023-01-26T07:51:04.813Z,30.17
2023-01-26T07:53:34.129Z,32.25
2023-01-26T07:56:17.786Z,30.10
2023-01-26T07:58:44.588Z,27.95
2023-01-26T08:01:14.929Z,29.23
2023-01-26T08:03:42.802Z,29.15
2023-01-26T08:06:12.417Z,32.40
2023-01-26T08:08:41.289Z,30.70
2023-01-26T08:11:10.155Z,29.33
2023-01-26T08:13:37.288Z,28.20
2023-01-26T08:16:12.575Z,28.23
2023-01-26T08:18:41.975Z,29.33
2023-01-26T08:21:11.185Z,31.25
2023-01-26T08:23:37.972Z,24.52
2023-01-26T08:26:11.867Z,29.00
2023-01-26T08:28:39.249Z,26.38
2023-01-26T08:31:13.151Z,27.35
2023-01-26T08:33:42.675Z,25.92
2023-01-26T08:36:14.339Z,32.78
2023-01-26T08:38:43.461Z,31.17
2023-01-26T08:41:11.319Z,28.90
2023-01-26T08:43:39.242Z,31.33
2023-01-26T08:46:07.289Z,31.00
2023-01-26T08:48:34.218Z,28.52
2023-01-26T08:51:04.093Z,30.80
2023-01-26T08:53:32.940Z,27.35
2023-01-26T08:56:04.782Z,34.17
2023-01-26T08:58:33.642Z,29.88
2023-01-26T09:01:07.994Z,32.95
2023-01-26T09:03:35.479Z,32.75
2023-01-26T09:06:04.815Z,30.52
2023-01-26T09:08:31.696Z,42.85
2023-01-26T09:10:58.683Z,53.17
2023-01-26T09:13:25.857Z,37.55
2023-01-26T09:15:52.821Z,36.10
2023-01-26T09:18:19.701Z,34.08
2023-01-26T09:20:46.576Z,37.80
2023-01-26T09:23:13.403Z,35.40
2023-01-26T09:25:40.867Z,36.65
2023-01-26T09:28:07.651Z,35.08
2023-01-26T09:30:34.932Z,32.30
2023-01-26T09:33:04.977Z,49.13
2023-01-26T09:35:32.387Z,37.53
2023-01-26T09:37:59.236Z,30.50
2023-01-26T09:40:44.360Z,39.67
2023-01-26T09:43:45.695Z,30.70
2023-01-26T09:46:46.765Z,31.23
2023-01-26T09:49:25.108Z,31.00
2023-01-26T09:52:00.498Z,30.88
2023-01-26T09:54:39.039Z,29.30
2023-01-26T09:58:06.397Z,28.83
2023-01-26T10:00:56.749Z,29.45
2023-01-26T10:03:38.949Z,25.98
2023-01-26T10:06:21.620Z,24.83
2023-01-26T10:08:49.728Z,29.52
2023-01-26T10:11:29.040Z,30.50
2023-01-26T10:14:24.418Z,27.80
2023-01-26T10:16:53.162Z,28.38
2023-01-26T10:19:39.600Z,25.08
2023-01-26T10:22:15.618Z,46.83
2023-01-26T10:24:52.814Z,31.27
2023-01-26T10:27:19.655Z,45.85
2023-01-26T10:29:46.479Z,38.63
2023-01-26T10:32:15.574Z,39.80
2023-01-26T10:34:48.367Z,23.20
2023-01-26T10:37:29.162Z,31.15
2023-01-26T10:40:02.560Z,30.45
2023-01-26T10:42:32.780Z,28.65
2023-01-26T10:45:02.485Z,24.83
2023-01-26T10:47:29.856Z,42.25
2023-01-26T10:50:23.180Z,25.15
2023-01-26T10:53:03.539Z,27.38
2023-01-26T10:55:33.818Z,21.85
2023-01-26T10:58:01.891Z,27.83
2023-01-26T11:00:33.526Z,29.55
2023-01-26T11:03:14.730Z,31.42
2023-01-26T11:05:44.729Z,31.67
2023-01-26T11:08:50.785Z,25.17
2023-01-26T11:11:30.351Z,27.55
2023-01-26T11:14:17.509Z,30.95
2023-01-26T11:17:15.342Z,22.23
2023-01-26T11:20:29.283Z,21.63
2023-01-26T11:23:25.199Z,24.20
2023-01-26T11:26:25.817Z,22.63
2023-01-26T11:29:10.973Z,21.75
2023-01-26T11:32:18.193Z,21.27
2023-01-26T11:35:08.595Z,20.30
2023-01-26T11:37:54.054Z,17.85
2023-01-26T11:40:46.559Z,22.38
2023-01-26T11:43:20.736Z,17.90
2023-01-26T11:46:25.014Z,19.30
2023-01-26T11:52:08.396Z,24.80
2023-01-26T11:57:29.057Z,24.95
2023-01-26T12:00:28.530Z,21.35
2023-01-26T12:03:05.908Z,23.63
2023-01-26T12:05:44.798Z,20.30
2023-01-26T12:08:19.599Z,23.42
2023-01-26T12:11:23.694Z,26.15
2023-01-26T12:14:02.508Z,24.10
2023-01-26T12:16:42.814Z,18.38
2023-01-26T12:19:49.116Z,19.83
2023-01-26T12:22:38.602Z,17.00
2023-01-26T12:25:30.504Z,20.38
2023-01-26T12:28:34.067Z,21.05
2023-01-26T12:31:23.079Z,19.60
2023-01-26T12:33:55.645Z,17.25
2023-01-26T12:36:29.804Z,14.45
2023-01-26T12:39:09.127Z,17.90
2023-01-26T12:42:13.603Z,18.98
2023-01-26T12:45:02.543Z,18.13
2023-01-26T12:48:14.666Z,19.15
2023-01-26T12:50:53.352Z,22.83
2023-01-26T12:53:46.788Z,22.35
2023-01-26T12:58:51.711Z,18.40
2023-01-26T13:01:24.709Z,18.90
2023-01-26T13:04:06.931Z,17.90
2023-01-26T13:06:35.864Z,15.07
2023-01-26T13:09:26.101Z,18.65
2023-01-26T13:11:55.675Z,20.80
2023-01-26T13:14:39.747Z,20.48
2023-01-26T13:17:15.743Z,25.17
2023-01-26T13:19:42.619Z,30.55
2023-01-26T13:22:42.228Z,23.55
2023-01-26T13:25:20.210Z,19.33
2023-01-26T13:28:03.735Z,17.38
2023-01-26T13:30:46.167Z,20.05
2023-01-26T13:33:25.658Z,17.52
2023-01-26T13:35:55.908Z,18.60
2023-01-26T13:38:41.511Z,23.20
2023-01-26T13:41:21.736Z,22.20
2023-01-26T13:43:55.202Z,25.98
2023-01-26T13:46:41.021Z,22.55
2023-01-26T13:49:33.979Z,19.35
2023-01-26T13:52:01.372Z,24.67
2023-01-26T13:54:28.279Z,28.23
2023-01-26T13:57:08.041Z,23.10
2023-01-26T13:59:48.604Z,27.88
2023-01-26T14:02:32.564Z,24.15
2023-01-26T14:05:01.664Z,25.58
2023-01-26T14:07:43.685Z,32.35
2023-01-26T14:10:20.704Z,26.10
2023-01-26T14:12:52.788Z,25.40
2023-01-26T14:15:25.670Z,17.95
2023-01-26T14:18:05.487Z,23.70
2023-01-26T14:20:38.452Z,21.92
2023-01-26T14:23:21.151Z,21.40
2023-01-26T14:25:59.030Z,19.70
2023-01-26T14:28:43.823Z,24.30
2023-01-26T14:31:22.729Z,25.10
2023-01-26T14:33:55.923Z,24.50
2023-01-26T14:36:26.988Z,22.75
2023-01-26T14:38:56.881Z,22.75
2023-01-26T14:41:36.987Z,22.45
2023-01-26T14:44:07.629Z,20.90
2023-01-26T14:47:02.373Z,23.52
2023-01-26T14:49:45.166Z,27.92
2023-01-26T14:52:52.429Z,23.10
2023-01-26T14:55:30.330Z,34.45
2023-01-26T14:57:59.211Z,26.80
2023-01-26T15:00:34.930Z,29.15
2023-01-26T15:03:36.825Z,28.17
2023-01-26T15:06:14.486Z,21.75
2023-01-26T15:08:57.923Z,24.30
2023-01-26T15:11:57.281Z,33.03
2023-01-26T15:14:36.687Z,25.20
2023-01-26T15:17:06.268Z,22.55
2023-01-26T15:19:41.796Z,23.75
2023-01-26T15:22:23.474Z,22.02
2023-01-26T15:25:17.982Z,22.77
2023-01-26T15:28:01.612Z,22.15
2023-01-26T15:30:34.035Z,26.83
2023-01-26T15:33:03.121Z,23.42
2023-01-26T15:35:35.089Z,26.88
2023-01-26T15:38:11.954Z,28.03
2023-01-26T15:40:40.810Z,32.20
2023-01-26T15:43:16.079Z,25.50
2023-01-26T15:45:52.911Z,25.25
2023-01-26T15:48:20.932Z,25.85
2023-01-26T15:50:48.460Z,26.10
2023-01-26T15:53:20.094Z,28.45
2023-01-26T15:55:53.414Z,27.80
2023-01-26T15:58:22.288Z,27.52
2023-01-26T16:00:53.171Z,27.35
2023-01-26T16:03:22.506Z,32.38
2023-01-26T16:05:51.068Z,35.10
2023-01-26T16:08:19.225Z,28.88
2023-01-26T16:10:47.313Z,31.60
2023-01-26T16:13:18.091Z,44.35
2023-01-26T16:15:50.975Z,39.67
2023-01-26T16:20:48.123Z,35.42
2023-01-26T16:23:23.441Z,30.85
2023-01-26T16:25:52.669Z,34.65
2023-01-26T16:28:20.992Z,42.22
2023-01-26T16:30:50.733Z,36.03
2023-01-26T16:33:24.494Z,35.30
2023-01-26T16:35:51.372Z,31.48
2023-01-26T16:38:18.321Z,35.58
2023-01-26T16:40:47.652Z,33.55
2023-01-26T16:43:34.769Z,33.17
2023-01-26T16:46:01.605Z,30.95
2023-01-26T16:48:31.598Z,30.00
2023-01-26T16:50:58.572Z,31.10
2023-01-26T16:53:35.825Z,38.67
2023-01-26T16:56:03.388Z,36.03
2023-01-26T16:58:33.073Z,33.72
2023-01-26T17:01:00.338Z,32.15
2023-01-26T17:03:27.150Z,30.67
2023-01-26T17:05:56.011Z,29.52
2023-01-26T17:08:23.085Z,32.60
2023-01-26T17:11:01.721Z,31.85
2023-01-26T17:13:29.839Z,28.40
2023-01-26T17:15:57.965Z,33.30
2023-01-26T17:18:25.751Z,31.42
2023-01-26T17:20:52.645Z,32.22
2023-01-26T17:23:19.484Z,32.38
2023-01-26T17:25:46.292Z,30.40
2023-01-26T17:28:13.061Z,29.52
2023-01-26T17:30:39.873Z,29.67
2023-01-26T17:33:06.689Z,31.25
2023-01-26T17:35:33.588Z,26.55
2023-01-26T17:38:00.406Z,26.73
2023-01-26T17:40:27.248Z,33.05
2023-01-26T17:42:54.028Z,32.20
2023-01-26T17:45:20.876Z,34.47
2023-01-26T17:47:47.696Z,36.60
2023-01-26T17:50:14.847Z,33.67
2023-01-26T17:52:41.677Z,33.55
2023-01-26T17:55:09.681Z,34.55
2023-01-26T17:57:36.734Z,37.90
2023-01-26T18:00:06.187Z,40.05
2023-01-26T18:02:33.795Z,33.63
2023-01-26T18:05:00.651Z,35.22
2023-01-26T18:07:27.482Z,40.90
2023-01-26T18:09:54.348Z,44.55
2023-01-26T18:12:21.147Z,38.45
2023-01-26T18:14:49.462Z,31.77
2023-01-26T18:17:16.302Z,36.08
2023-01-26T18:19:43.273Z,32.30
2023-01-26T18:22:10.078Z,34.58
2023-01-26T18:24:37.561Z,41.88
2023-01-26T18:27:04.369Z,27.80
2023-01-26T18:29:31.264Z,32.25
2023-01-26T18:31:58.566Z,29.83
2023-01-26T18:34:25.452Z,27.65
2023-01-26T18:36:52.345Z,32.08
2023-01-26T18:39:19.187Z,31.98
2023-01-26T18:41:46.140Z,34.30
2023-01-26T18:44:12.948Z,32.42
2023-01-26T18:46:39.797Z,31.77
2023-01-26T18:49:06.651Z,34.60
2023-01-26T18:51:36.094Z,36.72
2023-01-26T18:54:04.782Z,28.30
2023-01-26T18:56:32.134Z,29.63
2023-01-26T18:58:59.311Z,31.58
2023-01-26T19:01:26.774Z,26.92
2023-01-26T19:03:58.553Z,44.60
2023-01-26T19:06:26.453Z,39.05
2023-01-26T19:09:00.806Z,42.72
2023-01-26T19:11:30.953Z,48.58
2023-01-26T19:13:58.732Z,38.83
2023-01-26T19:16:26.483Z,45.67
2023-01-26T19:18:55.339Z,43.58
2023-01-26T19:21:24.761Z,39.88
2023-01-26T19:23:54.190Z,39.65
2023-01-26T19:26:25.701Z,37.75
2023-01-26T19:28:54.428Z,44.47
2023-01-26T19:31:22.394Z,43.78
2023-01-26T19:34:04.739Z,42.40
2023-01-26T19:36:35.897Z,29.73
2023-01-26T19:39:04.526Z,43.08
2023-01-26T19:41:31.829Z,44.65
2023-01-26T19:43:58.825Z,37.58
2023-01-26T19:46:25.812Z,39.20
2023-01-26T19:48:52.703Z,40.45
2023-01-26T19:51:22.984Z,43.03
2023-01-26T19:53:54.827Z,34.40
2023-01-26T19:56:26.357Z,37.85
2023-01-26T19:58:57.039Z,40.83
2023-01-26T20:01:25.446Z,41.13
2023-01-26T20:03:58.496Z,36.38
2023-01-26T20:06:28.766Z,36.55
2023-01-26T20:08:56.312Z,41.47
2023-01-26T20:11:28.788Z,49.63
2023-01-26T20:14:02.329Z,41.28
2023-01-26T20:16:30.595Z,40.08
2023-01-26T20:18:59.179Z,41.25
2023-01-26T20:21:27.461Z,43.95
2023-01-26T20:23:55.978Z,40.90
2023-01-26T20:26:25.917Z,39.97
2023-01-26T20:28:54.008Z,42.95
2023-01-26T20:31:24.804Z,38.90
2023-01-26T20:33:53.448Z,34.33
2023-01-26T20:36:24.879Z,37.97
2023-01-26T20:38:52.369Z,41.92
2023-01-26T20:41:24.067Z,35.75
2023-01-26T20:44:00.961Z,36.25
2023-01-26T20:46:36.323Z,48.08
2023-01-26T20:49:04.633Z,47.00
2023-01-26T20:51:35.715Z,36.60
2023-01-26T20:54:06.228Z,36.72
2023-01-26T20:56:33.981Z,38.42
2023-01-26T20:59:00.957Z,47.33
2023-01-26T21:01:28.105Z,38.08
2023-01-26T21:03:55.251Z,37.00
2023-01-26T21:06:24.191Z,39.85
2023-01-26T21:08:55.208Z,38.50
2023-01-26T21:11:25.131Z,40.60
2023-01-26T21:13:52.069Z,37.15
2023-01-26T21:16:19.485Z,38.28
2023-01-26T21:18:46.524Z,40.63
2023-01-26T21:21:17.516Z,43.42
2023-01-26T21:23:44.755Z,36.85
2023-01-26T21:26:19.148Z,37.28
2023-01-26T21:28:55.787Z,34.45
2023-01-26T21:31:25.453Z,42.80
2023-01-26T21:33:53.522Z,36.78
2023-01-26T21:36:31.864Z,41.30
2023-01-26T21:39:00.501Z,40.78
2023-01-26T21:41:49.872Z,41.15
2023-01-26T21:44:29.360Z,38.63
2023-01-26T21:47:04.059Z,43.88
2023-01-26T21:49:31.267Z,38.35
2023-01-26T21:52:17.187Z,37.80
2023-01-26T21:54:44.034Z,44.63
2023-01-26T21:57:30.347Z,41.70
2023-01-26T21:59:57.134Z,41.92
2023-01-26T22:02:24.131Z,43.83
2023-01-26T22:04:51.053Z,43.85
2023-01-26T22:07:17.928Z,55.90
2023-01-26T22:09:44.763Z,49.83
2023-01-26T22:12:11.559Z,49.25
2023-01-26T22:14:38.361Z,57.58
2023-01-26T22:17:05.353Z,50.17
2023-01-26T22:19:32.447Z,46.17
2023-01-26T22:21:59.255Z,54.80
2023-01-26T22:24:26.097Z,55.97
2023-01-26T22:26:52.916Z,56.65
2023-01-26T22:29:19.864Z,51.03
2023-01-26T22:31:46.803Z,58.65
2023-01-26T22:34:13.753Z,47.78
2023-01-26T22:36:41.272Z,52.83
2023-01-26T22:39:08.491Z,51.92
2023-01-26T22:41:37.621Z,50.63
2023-01-26T22:44:04.595Z,61.15
2023-01-26T22:46:32.050Z,49.53
2023-01-26T22:48:59.883Z,48.20
2023-01-26T22:51:30.907Z,48.17
2023-01-26T22:53:59.369Z,47.08
2023-01-26T22:56:27.092Z,49.05
2023-01-26T22:58:59.830Z,50.25
2023-01-26T23:01:30.211Z,49.10
2023-01-26T23:03:57.977Z,41.92
2023-01-26T23:06:25.607Z,47.05
2023-01-26T23:08:53.067Z,46.70
2023-01-26T23:11:27.289Z,57.15
2023-01-26T23:13:55.921Z,46.72
2023-01-26T23:16:24.389Z,46.30
2023-01-26T23:18:57.435Z,44.28
2023-01-26T23:21:28.164Z,44.63
2023-01-26T23:23:55.326Z,46.33
2023-01-26T23:26:22.762Z,47.50
2023-01-26T23:28:49.691Z,51.55
2023-01-26T23:31:18.388Z,49.47
2023-01-26T23:33:45.986Z,51.78
2023-01-26T23:36:15.268Z,55.22
2023-01-26T23:38:42.330Z,47.33
2023-01-26T23:41:09.246Z,53.88
2023-01-26T23:43:36.578Z,56.03
2023-01-26T23:46:05.924Z,53.42
2023-01-26T23:48:33.018Z,56.38
2023-01-26T23:51:06.760Z,50.35
2023-01-26T23:53:33.938Z,57.38
2023-01-26T23:56:09.486Z,48.40
2023-01-26T23:58:37.456Z,57.95
